To NAV CANADA Home Page Login to a new session Search on AWWS site Feedback and Comments Disclaimer Vers la page française équivalente Tips FAQ What's new on the site To the Forecasts and Observations / NOTAM section To "File a Flight Plan" website Publications and other links Update of the User's profile FIC Telephone Numbers My Weather Data Folder Route Weather Data Regional Weather Data Local Weather Data To the Forecasts and Observations / NOTAM section
Request Generated 07/27/2016 at 19:08:18 UTC . Weather information available at that time is displayed.

METAR/TAF

ROBERVAL/QC    

METAR CYRJ 271900Z VRB02KT 40SM FEW020 BKN035 20/17 A2978 RMK CU2SC3
TCU E SLP088 DENSITY ALT 1400FT=
SPECI CYRJ 271810Z 04002KT 25SM FEW010 BKN025 19/17 A2979 RMK SF1SC5
CB MVG SE SLP090 DENSITY ALT 1300FT=
METAR CYRJ 271800Z 09004KT 360V160 12SM -TSRA FEW010 SCT025CB BKN030
19/17 A2979 RMK SF2CB1SC4 TCU ASOCTD SLP092 DENSITY ALT 1200FT=
SPECI CYRJ 271734Z 36006G19KT 320V030 6SM -TSRA FEW007 BKN025CB
BKN030 18/18 A2979 RMK SF2CB3SC2 PRESFR SLP090 DENSITY ALT 1200FT=
SPECI CYRJ 271726Z 34015KT 6SM TSRA BKN025CB 17/16 A2980 RMK CB7
WSHFT 1710 PRESRR SLP095 DENSITY ALT 1100FT=
SPECI CYRJ 271710Z CCA 02012G25KT 340V110 20SM -TSRA FEW007 BKN025CB
18/16 A2977 RMK CF2CB5 WSHFT 1703 PRESRR SLP085 DENSITY ALT 1200FT=
SPECI CYRJ 271710Z 02012G25KT 340V110 20SM -TSRA FEW007 BKN025 18/16
A2977 RMK CU2CU5 WSHFT 1703 PRESRR SLP085 DENSITY ALT 1200FT=
SPECI CYRJ 271707Z 36015G25KT 340V130 20SM -SHRA FEW007 BKN025CB
20/16 A2979 RMK CF2CB5 PRESRR SLP089 DENSITY ALT 1400FT=
METAR CYRJ 271700Z 11004KT 050V150 25SM BKN025 22/18 A2975 RMK SC6 CB
N TCU ASOCTD SLP075 DENSITY ALT 1700FT=

TAF AMD CYRJ 271806Z 2718/2802 09005KT P6SM -SHRA BKN030 TEMPO
2718/2719 2SM TSRA OVC020CB
FM271815 09005KT P6SM SCT020 BKN050 TEMPO 2718/2801 P6SM -SHRA
BKN020 BKN060 PROB30 2718/2723 VRB15G30KT 2SM TSRA BKN020CB
FM280100 28006KT P6SM FEW025 SCT050
RMK NXT FCST BY 272000Z=
Your time UTC time
Weather data provided by Environment Canada and NAV CANADA